Time;durP1;ratioP1;P1;durP2;ratioP2;P2;SDS_P1;SDS_P2;PMS_P1;PMS_P2;Temp;Humidity;BMP_temperature;BMP_pressure;BME280_temperature;BME280_humidity;BME280_pressure;Samples;Min_cycle;Max_cycle;Signal;HPM_P1;HPM_P2
2024/03/11 00:00:50;;;;;;;1195.17;999.90;;;8.30;99.90;;;;;;5065402;28;20553;-65
2024/03/11 00:03:17;;;;;;;1237.33;999.90;;;8.30;99.90;;;;;;5055416;28;20562;-65
2024/03/11 00:05:44;;;;;;;1219.83;999.90;;;8.20;99.90;;;;;;5064668;28;20450;-65
2024/03/11 00:08:16;;;;;;;1235.83;999.90;;;8.20;99.90;;;;;;5061111;28;20485;-66
2024/03/11 00:10:44;;;;;;;1248.47;999.90;;;8.20;99.90;;;;;;5062668;28;20821;-65
2024/03/11 00:13:11;;;;;;;1232.90;999.90;;;8.20;99.90;;;;;;5065479;28;20477;-65
2024/03/11 00:15:40;;;;;;;1237.23;999.90;;;8.20;99.90;;;;;;5073254;28;20446;-65
2024/03/11 00:18:07;;;;;;;1239.67;999.90;;;8.20;99.90;;;;;;5075221;28;20442;-65
2024/03/11 00:20:35;;;;;;;1187.37;999.90;;;8.20;99.90;;;;;;5062147;28;20947;-65
2024/03/11 00:23:03;;;;;;;1133.67;999.90;;;8.30;99.90;;;;;;5065928;28;20906;-65
2024/03/11 00:25:30;;;;;;;1110.17;999.90;;;8.30;99.90;;;;;;5064370;28;20877;-65
2024/03/11 00:27:59;;;;;;;1070.43;969.83;;;8.30;99.90;;;;;;5071368;28;20475;-65
2024/03/11 00:30:26;;;;;;;1091.90;990.80;;;8.20;99.90;;;;;;5074869;28;20454;-65
2024/03/11 00:32:54;;;;;;;1137.47;999.90;;;8.20;99.90;;;;;;5072169;28;20546;-65
2024/03/11 00:35:24;;;;;;;1128.43;999.90;;;8.30;99.90;;;;;;5062127;28;20446;-65
2024/03/11 00:37:51;;;;;;;1125.57;999.90;;;8.20;99.90;;;;;;5064078;28;20500;-65
2024/03/11 00:40:18;;;;;;;1139.27;999.90;;;8.20;99.90;;;;;;5069708;28;20446;-65
2024/03/11 00:42:45;;;;;;;1129.70;999.90;;;8.20;99.90;;;;;;5061134;28;20981;-66
2024/03/11 00:45:12;;;;;;;1145.47;999.90;;;8.20;99.90;;;;;;5065451;28;20954;-65
2024/03/11 00:47:41;;;;;;;1148.43;999.90;;;8.20;99.90;;;;;;5067209;28;20471;-64
2024/03/11 00:50:10;;;;;;;1111.47;999.90;;;8.20;99.90;;;;;;5070392;28;20458;-64
2024/03/11 00:52:37;;;;;;;1162.83;999.90;;;8.20;99.90;;;;;;5062755;28;20477;-65
2024/03/11 00:55:06;;;;;;;1175.50;999.90;;;8.10;99.90;;;;;;5058814;28;20451;-65
2024/03/11 00:57:34;;;;;;;1170.93;999.90;;;8.20;99.90;;;;;;5053968;28;20443;-66
2024/03/11 01:00:00;;;;;;;1181.20;999.90;;;8.20;99.90;;;;;;5061986;28;20464;-64
2024/03/11 01:02:27;;;;;;;1174.60;999.90;;;8.10;99.90;;;;;;5064667;28;20454;-65
2024/03/11 01:04:54;;;;;;;1154.90;999.90;;;8.10;99.90;;;;;;5065852;28;20451;-65
2024/03/11 01:07:25;;;;;;;1123.97;999.90;;;8.10;99.90;;;;;;5068414;28;20927;-65
2024/03/11 01:09:51;;;;;;;1130.50;999.90;;;8.10;99.90;;;;;;5068036;28;20502;-65
2024/03/11 01:12:18;;;;;;;1145.27;999.90;;;8.10;99.90;;;;;;5068423;28;20537;-65
2024/03/11 01:14:45;;;;;;;1075.20;975.80;;;8.10;99.90;;;;;;5063611;28;20953;-65
2024/03/11 01:17:12;;;;;;;1144.17;999.90;;;8.10;99.90;;;;;;5066185;28;20453;-64
2024/03/11 01:19:39;;;;;;;1101.17;998.67;;;8.00;99.90;;;;;;5057757;28;20814;-65
2024/03/11 01:22:05;;;;;;;1169.47;999.90;;;8.00;99.90;;;;;;5062372;28;20473;-64
2024/03/11 01:24:33;;;;;;;1178.03;999.90;;;8.10;99.90;;;;;;5064610;28;20850;-65
2024/03/11 01:27:07;;;;;;;1155.27;999.90;;;8.00;99.90;;;;;;5067589;28;20497;-65
2024/03/11 01:29:33;;;;;;;1136.13;999.90;;;8.00;99.90;;;;;;5068737;28;21045;-65
2024/03/11 01:32:00;;;;;;;1091.73;992.23;;;8.00;99.90;;;;;;5063505;28;20942;-66
2024/03/11 01:34:29;;;;;;;1159.70;999.90;;;8.00;99.90;;;;;;5073824;28;20860;-65
2024/03/11 01:36:55;;;;;;;1101.90;999.90;;;8.00;99.90;;;;;;5072788;28;20500;-66
2024/03/11 01:39:26;;;;;;;1170.87;999.90;;;8.00;99.90;;;;;;5065917;28;20443;-66
2024/03/11 01:41:54;;;;;;;1172.23;999.90;;;8.00;99.90;;;;;;5064423;28;20954;-66
2024/03/11 01:44:21;;;;;;;1150.27;999.90;;;8.00;99.90;;;;;;5059009;28;20473;-66
2024/03/11 01:46:53;;;;;;;1122.63;999.90;;;8.00;99.90;;;;;;5061619;28;20482;-66
2024/03/11 01:49:21;;;;;;;1111.60;999.90;;;8.00;99.90;;;;;;5067314;28;20537;-66
2024/03/11 01:51:48;;;;;;;1133.40;999.90;;;8.00;99.90;;;;;;5057039;28;20898;-66
2024/03/11 01:54:15;;;;;;;1093.27;993.13;;;8.00;99.90;;;;;;5067732;28;20474;-66
2024/03/11 01:56:42;;;;;;;1073.13;969.90;;;8.00;99.90;;;;;;5067562;28;20442;-65
2024/03/11 01:59:12;;;;;;;1109.33;999.90;;;7.90;99.90;;;;;;5067755;28;20451;-65
2024/03/11 02:01:40;;;;;;;1085.07;978.17;;;8.00;99.90;;;;;;5066261;28;20483;-66
2024/03/11 02:04:09;;;;;;;1105.63;999.47;;;8.00;99.90;;;;;;5058183;28;20523;-64
2024/03/11 02:06:36;;;;;;;1116.17;999.90;;;8.00;99.90;;;;;;5060475;28;20447;-65
2024/03/11 02:09:04;;;;;;;1165.30;999.90;;;8.00;99.90;;;;;;5061379;28;20458;-66
2024/03/11 02:11:32;;;;;;;1182.47;999.90;;;7.90;99.90;;;;;;5063311;28;20993;-65
2024/03/11 02:13:59;;;;;;;1142.83;999.90;;;8.00;99.90;;;;;;5055699;28;20475;-65
2024/03/11 02:16:27;;;;;;;1148.17;999.90;;;7.90;99.90;;;;;;5058113;28;20451;-65
2024/03/11 02:18:55;;;;;;;1174.73;999.90;;;7.90;99.90;;;;;;5061077;28;20443;-65
2024/03/11 02:21:22;;;;;;;1196.37;999.90;;;7.90;99.90;;;;;;5052592;28;20444;-65
2024/03/11 02:23:50;;;;;;;1173.93;999.90;;;7.90;99.90;;;;;;5061626;28;20984;-65
2024/03/11 02:26:19;;;;;;;1160.03;999.90;;;7.90;99.90;;;;;;5061256;28;20463;-65
2024/03/11 02:28:46;;;;;;;1173.67;999.90;;;7.90;99.90;;;;;;5052927;28;20479;-66
2024/03/11 02:31:13;;;;;;;1191.00;999.90;;;7.90;99.90;;;;;;5065311;28;20527;-65
2024/03/11 02:33:40;;;;;;;1193.17;999.90;;;8.00;99.90;;;;;;5053842;28;20475;-65
2024/03/11 02:36:07;;;;;;;1192.73;999.90;;;8.00;99.90;;;;;;5056529;28;20454;-65
2024/03/11 02:38:34;;;;;;;1190.33;999.90;;;8.00;99.90;;;;;;5067840;28;20450;-66
2024/03/11 02:41:03;;;;;;;1193.20;999.90;;;8.00;99.90;;;;;;5057301;28;20445;-66
2024/03/11 02:43:29;;;;;;;1147.80;999.90;;;7.90;99.90;;;;;;5052533;28;20483;-64
2024/03/11 02:45:56;;;;;;;1157.20;999.90;;;8.00;99.90;;;;;;5052504;28;20447;-65
2024/03/11 02:48:23;;;;;;;1167.93;999.90;;;8.00;99.90;;;;;;5058229;28;20478;-66
2024/03/11 02:50:50;;;;;;;1181.77;999.90;;;8.20;99.90;;;;;;5065342;28;20456;-65
2024/03/11 02:53:17;;;;;;;1182.80;999.90;;;8.30;99.90;;;;;;5061802;28;20888;-65
2024/03/11 02:55:45;;;;;;;1178.90;999.90;;;8.30;99.90;;;;;;5064424;28;20454;-65
2024/03/11 02:58:13;;;;;;;1163.87;999.90;;;8.30;99.90;;;;;;5056962;28;20450;-65
2024/03/11 03:00:40;;;;;;;1162.27;999.90;;;8.30;99.90;;;;;;5054909;28;20843;-63
2024/03/11 03:03:07;;;;;;;1188.73;999.90;;;8.10;99.90;;;;;;5060312;28;20990;-65
2024/03/11 03:05:34;;;;;;;1148.00;999.90;;;8.10;99.90;;;;;;5059739;28;20518;-64
2024/03/11 03:08:01;;;;;;;1158.57;999.90;;;8.30;99.90;;;;;;5052180;28;20487;-64
2024/03/11 03:10:28;;;;;;;1187.07;999.90;;;8.10;99.90;;;;;;5052754;28;20462;-65
2024/03/11 03:12:55;;;;;;;1173.17;999.90;;;8.10;99.90;;;;;;5061992;28;20474;-65
2024/03/11 03:15:23;;;;;;;1191.90;999.90;;;8.20;99.90;;;;;;5059075;28;20455;-65
2024/03/11 03:17:50;;;;;;;1205.70;999.90;;;8.30;99.90;;;;;;5059315;28;20447;-65
2024/03/11 03:20:18;;;;;;;1195.50;999.90;;;8.30;99.90;;;;;;5055786;28;20453;-65
2024/03/11 03:22:44;;;;;;;1181.50;999.90;;;8.00;99.90;;;;;;5060017;28;20569;-65
2024/03/11 03:25:13;;;;;;;1190.47;999.90;;;8.00;99.90;;;;;;5059780;28;20844;-64
2024/03/11 03:27:39;;;;;;;1168.50;999.90;;;8.40;99.90;;;;;;5051672;28;20471;-65
2024/03/11 03:30:08;;;;;;;1148.37;999.90;;;8.40;99.90;;;;;;5055750;28;20456;-65
2024/03/11 03:32:37;;;;;;;1148.53;999.90;;;8.40;99.90;;;;;;5063340;28;20477;-65
2024/03/11 03:35:10;;;;;;;1136.97;999.90;;;8.30;99.90;;;;;;5062673;28;20954;-65
2024/03/11 03:37:37;;;;;;;1136.10;999.90;;;8.00;99.90;;;;;;5055534;28;20443;-65
2024/03/11 03:40:15;;;;;;;1158.73;999.90;;;8.00;99.90;;;;;;5060530;28;20454;-65
2024/03/11 03:42:42;;;;;;;1088.57;981.67;;;8.10;99.90;;;;;;5052828;28;20850;-65
2024/03/11 03:45:10;;;;;;;1131.07;999.90;;;8.20;99.90;;;;;;5068272;28;20461;-65
2024/03/11 03:47:38;;;;;;;1088.03;986.20;;;8.00;99.90;;;;;;5060239;28;20486;-65
2024/03/11 03:50:10;;;;;;;1096.90;992.33;;;8.00;99.90;;;;;;5059681;28;20454;-64
2024/03/11 03:52:38;;;;;;;1145.53;999.90;;;8.30;99.90;;;;;;5051888;28;20783;-65
2024/03/11 03:55:05;;;;;;;1185.07;999.90;;;8.40;99.90;;;;;;5058236;28;20451;-62
2024/03/11 03:57:32;;;;;;;1127.83;999.90;;;8.10;99.90;;;;;;5051541;28;20537;-64
2024/03/11 04:00:00;;;;;;;1140.17;999.90;;;8.40;99.90;;;;;;5060133;28;20470;-64
2024/03/11 04:02:27;;;;;;;1158.60;999.90;;;8.00;99.90;;;;;;5062663;28;20447;-65
2024/03/11 04:04:55;;;;;;;1183.80;999.90;;;8.00;99.90;;;;;;5054821;28;20449;-64
2024/03/11 04:07:22;;;;;;;1218.67;999.90;;;8.40;99.90;;;;;;5062583;28;20481;-65
2024/03/11 04:09:48;;;;;;;1182.80;999.90;;;8.00;99.90;;;;;;5054562;28;20451;-65
2024/03/11 04:12:16;;;;;;;1205.17;999.90;;;8.40;99.90;;;;;;5061020;28;20451;-65
2024/03/11 04:14:43;;;;;;;1194.87;999.90;;;8.40;99.90;;;;;;5052142;28;20459;-65
2024/03/11 04:17:12;;;;;;;1181.70;999.90;;;8.20;99.90;;;;;;5069920;28;20564;-65
2024/03/11 04:19:40;;;;;;;1190.27;999.90;;;8.00;99.90;;;;;;5067162;28;20450;-65
2024/03/11 04:22:08;;;;;;;1189.83;999.90;;;8.20;99.90;;;;;;5051664;28;20447;-65
2024/03/11 04:24:36;;;;;;;1231.20;999.90;;;8.10;99.90;;;;;;5059458;28;21004;-65
2024/03/11 04:27:05;;;;;;;1232.80;999.90;;;8.00;99.90;;;;;;5059924;28;20511;-65
2024/03/11 04:29:31;;;;;;;1219.13;999.90;;;8.30;99.90;;;;;;5057681;28;20942;-64
2024/03/11 04:31:58;;;;;;;1222.07;999.90;;;8.20;99.90;;;;;;5068235;28;20443;-65
2024/03/11 04:34:26;;;;;;;1211.00;999.90;;;8.10;99.90;;;;;;5055129;28;20476;-65
2024/03/11 04:36:53;;;;;;;1203.53;999.90;;;8.40;99.90;;;;;;5072038;28;20461;-66
2024/03/11 04:39:21;;;;;;;1188.00;999.90;;;8.20;99.90;;;;;;5060259;28;20465;-67
2024/03/11 04:41:48;;;;;;;1157.83;999.90;;;8.40;99.90;;;;;;5055245;28;20450;-67
2024/03/11 04:44:16;;;;;;;1114.43;999.90;;;8.00;99.90;;;;;;5063715;28;20463;-64
2024/03/11 04:46:43;;;;;;;1169.17;999.90;;;8.30;99.90;;;;;;5071071;28;20541;-65
2024/03/11 04:49:09;;;;;;;1178.53;999.90;;;8.20;99.90;;;;;;5056505;28;20485;-64
2024/03/11 04:51:36;;;;;;;1198.03;999.90;;;8.40;99.90;;;;;;5062317;28;20450;-65
2024/03/11 04:54:03;;;;;;;1195.13;999.90;;;8.40;99.90;;;;;;5062115;28;20487;-65
2024/03/11 04:56:31;;;;;;;1194.53;999.90;;;8.30;99.90;;;;;;5062918;28;20478;-65
2024/03/11 04:58:59;;;;;;;1227.07;999.90;;;8.30;99.90;;;;;;5057697;28;20493;-65
2024/03/11 05:01:26;;;;;;;1241.63;999.90;;;8.50;99.90;;;;;;5059991;28;20534;-65
2024/03/11 05:03:53;;;;;;;1226.50;999.90;;;8.20;99.90;;;;;;5055979;28;20506;-65
2024/03/11 05:06:20;;;;;;;1227.70;999.90;;;8.10;99.90;;;;;;5060038;28;20970;-65
2024/03/11 05:08:47;;;;;;;1177.93;999.90;;;8.50;99.90;;;;;;5062498;28;20478;-65
2024/03/11 05:11:14;;;;;;;1236.27;999.90;;;8.10;99.90;;;;;;5058888;28;20473;-66
2024/03/11 05:13:42;;;;;;;1242.90;999.90;;;8.60;99.90;;;;;;5074466;28;20473;-64
2024/03/11 05:16:09;;;;;;;1227.07;999.90;;;8.30;99.90;;;;;;5065429;28;20450;-65
2024/03/11 05:18:36;;;;;;;1243.87;999.90;;;8.50;99.90;;;;;;5064168;28;20512;-64
2024/03/11 05:21:04;;;;;;;1228.83;999.90;;;8.40;99.90;;;;;;5073649;28;20477;-64
2024/03/11 05:23:30;;;;;;;1243.07;999.90;;;8.20;99.90;;;;;;5066779;28;20483;-65
2024/03/11 05:25:59;;;;;;;1238.47;999.90;;;8.50;99.90;;;;;;5053225;28;20460;-64
2024/03/11 05:28:26;;;;;;;1273.60;999.90;;;8.50;99.90;;;;;;5068965;28;20478;-64
2024/03/11 05:30:54;;;;;;;1236.63;999.90;;;8.50;99.90;;;;;;5063725;28;20506;-64
2024/03/11 05:33:21;;;;;;;1169.60;999.90;;;8.50;99.90;;;;;;5061752;28;20482;-65
2024/03/11 05:35:48;;;;;;;1193.17;999.90;;;8.00;99.90;;;;;;5069960;28;20657;-65
2024/03/11 05:38:15;;;;;;;1206.50;999.90;;;8.00;99.90;;;;;;5059027;28;20798;-65
2024/03/11 05:40:43;;;;;;;1193.07;999.90;;;8.50;99.90;;;;;;5062991;28;20454;-65
2024/03/11 05:43:10;;;;;;;1181.00;999.90;;;8.00;99.90;;;;;;5073153;28;20477;-65
2024/03/11 05:45:37;;;;;;;1180.73;999.90;;;8.10;99.90;;;;;;5073542;28;20844;-64
2024/03/11 05:48:06;;;;;;;1213.50;999.90;;;7.90;99.90;;;;;;5065262;28;20845;-65
2024/03/11 05:50:33;;;;;;;1218.80;999.90;;;7.90;99.90;;;;;;5073869;28;20481;-65
2024/03/11 05:53:00;;;;;;;1221.50;999.90;;;8.40;99.90;;;;;;5068711;28;21022;-65
2024/03/11 05:55:32;;;;;;;1202.53;999.90;;;8.50;99.90;;;;;;5068066;28;20454;-65
2024/03/11 05:58:02;;;;;;;1208.37;999.90;;;8.00;99.90;;;;;;5073790;28;20446;-63
2024/03/11 06:00:31;;;;;;;1199.60;999.90;;;7.90;99.90;;;;;;5060085;28;20934;-65
2024/03/11 06:02:58;;;;;;;1195.30;999.90;;;7.80;99.90;;;;;;5064011;28;20528;-65
2024/03/11 06:05:26;;;;;;;1191.47;999.90;;;7.90;99.90;;;;;;5058616;28;20459;-67
2024/03/11 06:07:53;;;;;;;1209.17;999.90;;;7.80;99.90;;;;;;5066154;28;20458;-65
2024/03/11 06:10:20;;;;;;;1214.50;999.90;;;8.40;99.90;;;;;;5059318;28;20452;-65
2024/03/11 06:12:48;;;;;;;1212.10;999.90;;;7.90;99.90;;;;;;5053273;28;20936;-65
2024/03/11 06:15:15;;;;;;;1198.33;999.90;;;7.80;99.90;;;;;;5057674;28;20829;-65
2024/03/11 06:17:42;;;;;;;1190.77;999.90;;;7.90;99.90;;;;;;5073278;28;20450;-65
2024/03/11 06:20:13;;;;;;;1175.37;999.90;;;8.00;99.90;;;;;;5070585;28;20484;-64
2024/03/11 06:22:41;;;;;;;1182.00;999.90;;;8.10;99.90;;;;;;5058131;28;20471;-65
2024/03/11 06:25:09;;;;;;;1166.67;999.90;;;8.40;99.90;;;;;;5061219;28;20447;-65
2024/03/11 06:27:37;;;;;;;1166.93;999.90;;;8.20;99.90;;;;;;5064651;28;20538;-64
2024/03/11 06:30:04;;;;;;;1173.47;999.90;;;8.30;99.90;;;;;;5072165;28;20479;-65
2024/03/11 06:32:32;;;;;;;1172.73;999.90;;;8.40;99.90;;;;;;5065767;28;20481;-64
2024/03/11 06:34:59;;;;;;;1182.43;999.90;;;8.10;99.90;;;;;;5061011;28;20446;-65
2024/03/11 06:37:25;;;;;;;1182.30;999.90;;;7.90;99.90;;;;;;5054799;28;20458;-65
2024/03/11 06:39:54;;;;;;;1147.47;999.90;;;8.20;99.90;;;;;;5062235;28;20447;-63
2024/03/11 06:42:22;;;;;;;1151.87;999.90;;;8.40;99.90;;;;;;5055997;28;20449;-65
2024/03/11 06:44:50;;;;;;;1148.93;999.90;;;8.40;99.90;;;;;;5070206;28;20454;-65
2024/03/11 06:47:17;;;;;;;1143.87;999.90;;;8.40;99.90;;;;;;5071777;28;20453;-65
2024/03/11 06:49:43;;;;;;;1152.57;999.90;;;8.40;99.90;;;;;;5062927;28;21052;-65
2024/03/11 06:52:10;;;;;;;1154.07;999.90;;;8.30;99.90;;;;;;5067029;28;20464;-65
2024/03/11 06:54:38;;;;;;;1189.27;999.90;;;8.10;99.90;;;;;;5055998;28;20508;-66
2024/03/11 06:57:06;;;;;;;1193.97;999.90;;;8.30;99.90;;;;;;5063613;28;20446;-65
2024/03/11 06:59:33;;;;;;;1180.60;999.90;;;8.50;99.90;;;;;;5063541;28;20467;-65
2024/03/11 07:02:00;;;;;;;1151.90;999.90;;;8.10;99.90;;;;;;5059874;28;20455;-64
2024/03/11 07:04:26;;;;;;;1154.33;999.90;;;8.30;99.90;;;;;;5051567;28;20481;-64
2024/03/11 07:06:53;;;;;;;1158.93;999.90;;;8.30;99.90;;;;;;5061288;28;21011;-65
2024/03/11 07:09:20;;;;;;;1149.07;999.90;;;8.50;99.90;;;;;;5061738;28;20855;-66
2024/03/11 07:11:47;;;;;;;1155.17;999.90;;;8.40;99.90;;;;;;5052837;28;20457;-67
2024/03/11 07:14:15;;;;;;;1145.77;999.90;;;8.20;99.90;;;;;;5072026;28;20476;-65
2024/03/11 07:16:43;;;;;;;1149.27;999.90;;;7.90;99.90;;;;;;5071045;28;20466;-65
2024/03/11 07:19:10;;;;;;;1138.00;999.90;;;8.00;99.90;;;;;;5055754;28;20503;-65
2024/03/11 07:21:37;;;;;;;1129.50;999.90;;;8.00;99.90;;;;;;5056019;28;20451;-65
2024/03/11 07:24:05;;;;;;;1147.07;999.90;;;8.50;99.90;;;;;;5071319;28;20557;-65
2024/03/11 07:26:31;;;;;;;1150.47;999.90;;;8.20;99.90;;;;;;5056410;28;20834;-65
2024/03/11 07:28:58;;;;;;;1119.37;999.90;;;8.00;99.90;;;;;;5071232;28;20486;-65
2024/03/11 07:31:27;;;;;;;1128.53;999.90;;;8.50;99.90;;;;;;5072466;28;21116;-65
2024/03/11 07:33:54;;;;;;;1157.03;999.90;;;8.00;99.90;;;;;;5072262;28;20493;-65
2024/03/11 07:36:21;;;;;;;1159.63;999.90;;;8.50;99.90;;;;;;5071521;28;20537;-64
2024/03/11 07:38:48;;;;;;;1164.17;999.90;;;8.00;99.90;;;;;;5071667;28;20461;-64
2024/03/11 07:41:15;;;;;;;1155.47;999.90;;;8.00;99.90;;;;;;5065150;28;20458;-65
2024/03/11 07:43:42;;;;;;;1158.27;999.90;;;8.10;99.90;;;;;;5059696;28;20470;-65
2024/03/11 07:46:08;;;;;;;1129.80;999.90;;;8.20;99.90;;;;;;5071265;28;20545;-65
2024/03/11 07:48:39;;;;;;;1117.10;999.90;;;8.20;99.90;;;;;;5071155;28;20470;-64
2024/03/11 07:51:06;;;;;;;1106.93;999.87;;;8.60;99.90;;;;;;5070922;28;20999;-64
2024/03/11 07:53:33;;;;;;;1102.80;994.27;;;8.50;99.90;;;;;;5070945;28;20466;-65
2024/03/11 07:56:02;;;;;;;1087.53;977.77;;;8.30;99.90;;;;;;5070694;28;21339;-64
2024/03/11 07:58:29;;;;;;;1116.67;999.90;;;8.50;99.90;;;;;;5071008;28;20465;-62
2024/03/11 08:00:56;;;;;;;1104.20;993.80;;;8.60;99.90;;;;;;5052149;28;20462;-65
2024/03/11 08:03:23;;;;;;;1102.37;991.77;;;8.10;99.90;;;;;;5057268;28;20485;-65
2024/03/11 08:05:51;;;;;;;1101.37;992.27;;;8.60;99.90;;;;;;5058136;28;20545;-65
2024/03/11 08:08:18;;;;;;;1106.70;996.57;;;8.20;99.90;;;;;;5074991;28;20450;-65
2024/03/11 08:10:50;;;;;;;1146.87;999.90;;;8.20;99.90;;;;;;5057502;28;20561;-64
2024/03/11 08:13:17;;;;;;;1166.10;999.90;;;8.50;99.90;;;;;;5054705;28;20481;-65
2024/03/11 08:15:44;;;;;;;1167.97;999.90;;;8.30;99.90;;;;;;5063696;28;20460;-65
2024/03/11 08:18:11;;;;;;;1161.27;999.90;;;8.60;99.90;;;;;;5074394;28;20458;-65
2024/03/11 08:20:38;;;;;;;1197.00;999.90;;;8.50;99.90;;;;;;5074735;28;20446;-64
2024/03/11 08:23:07;;;;;;;1190.23;999.90;;;8.70;99.90;;;;;;5057968;28;20470;-65
2024/03/11 08:25:33;;;;;;;1151.70;999.90;;;8.30;99.90;;;;;;5058630;28;20843;-64
2024/03/11 08:28:00;;;;;;;1222.53;999.90;;;8.30;99.90;;;;;;5073760;28;21011;-63
2024/03/11 08:30:28;;;;;;;1214.97;999.90;;;8.70;99.90;;;;;;5067829;28;20486;-65
2024/03/11 08:32:56;;;;;;;1201.00;999.90;;;8.60;99.90;;;;;;5062553;28;20501;-64
2024/03/11 08:35:24;;;;;;;1196.93;999.90;;;8.20;99.90;;;;;;5060099;28;20458;-64
2024/03/11 08:37:51;;;;;;;1167.30;999.90;;;8.30;99.90;;;;;;5074459;28;20996;-65
2024/03/11 08:40:21;;;;;;;1163.33;999.90;;;8.50;99.90;;;;;;5074147;28;20933;-64
2024/03/11 08:42:50;;;;;;;1088.50;986.60;;;8.70;99.90;;;;;;5074132;28;20618;-64
2024/03/11 08:45:18;;;;;;;1115.77;999.90;;;8.30;99.90;;;;;;5073693;28;20493;-64
2024/03/11 08:47:46;;;;;;;1093.83;994.57;;;8.50;99.90;;;;;;5056834;28;20947;-65
2024/03/11 08:50:16;;;;;;;1130.30;999.90;;;8.20;99.90;;;;;;5069835;28;20842;-65
2024/03/11 08:52:45;;;;;;;1124.63;999.90;;;8.30;99.90;;;;;;5062363;28;20477;-65
2024/03/11 08:55:13;;;;;;;1090.57;992.37;;;8.30;99.90;;;;;;5073425;28;20946;-65
2024/03/11 08:57:41;;;;;;;1091.17;993.33;;;8.80;99.90;;;;;;5073721;28;20550;-64
2024/03/11 09:00:10;;;;;;;1094.90;996.50;;;8.30;99.90;;;;;;5073713;28;20529;-64
2024/03/11 09:02:37;;;;;;;1085.77;988.10;;;8.80;99.90;;;;;;5073919;28;20466;-65
2024/03/11 09:05:09;;;;;;;1083.50;985.63;;;8.90;99.90;;;;;;5074217;28;20639;-65
2024/03/11 09:07:37;;;;;;;1073.97;974.97;;;8.40;99.90;;;;;;5073623;28;20787;-64
2024/03/11 09:10:07;;;;;;;1067.93;968.53;;;8.90;99.90;;;;;;5073206;28;20849;-64
2024/03/11 09:12:34;;;;;;;1070.10;972.30;;;8.80;99.90;;;;;;5073747;28;20494;-64
2024/03/11 09:15:04;;;;;;;1083.67;985.50;;;8.40;99.90;;;;;;5072210;28;20462;-64
2024/03/11 09:17:30;;;;;;;1083.67;988.33;;;8.90;99.90;;;;;;5073359;28;20549;-64
2024/03/11 09:19:57;;;;;;;1096.00;998.47;;;8.70;99.90;;;;;;5073733;28;20461;-65
2024/03/11 09:22:26;;;;;;;1106.60;999.90;;;8.50;99.90;;;;;;5073326;28;20961;-65
2024/03/11 09:24:53;;;;;;;1050.90;953.67;;;8.90;99.90;;;;;;5054810;28;20455;-65
2024/03/11 09:27:20;;;;;;;1084.93;986.73;;;8.40;99.90;;;;;;5052907;28;20455;-64
2024/03/11 09:29:48;;;;;;;1092.60;992.93;;;8.70;99.90;;;;;;5062609;28;20986;-65
2024/03/11 09:32:16;;;;;;;1094.67;995.90;;;8.50;99.90;;;;;;5060272;28;20828;-65
2024/03/11 09:34:45;;;;;;;1093.87;994.90;;;8.80;99.90;;;;;;5053405;28;20546;-65
2024/03/11 09:37:12;;;;;;;1108.43;999.90;;;8.50;99.90;;;;;;5072637;28;20804;-65
2024/03/11 09:39:40;;;;;;;1106.90;999.90;;;8.60;99.90;;;;;;5057410;28;20447;-65
2024/03/11 09:42:10;;;;;;;1112.67;999.90;;;9.10;99.90;;;;;;5053326;28;20459;-65
2024/03/11 09:44:35;;;;;;;1110.53;999.90;;;8.70;99.90;;;;;;5053573;28;20451;-63
2024/03/11 09:47:02;;;;;;;1098.53;998.37;;;9.10;99.90;;;;;;5072834;28;20553;-63
2024/03/11 09:49:31;;;;;;;1090.80;992.23;;;8.60;99.90;;;;;;5058843;28;20593;-65
2024/03/11 09:52:01;;;;;;;1088.90;991.40;;;9.00;99.90;;;;;;5061275;28;20946;-65
2024/03/11 09:54:28;;;;;;;1101.03;999.90;;;9.00;99.90;;;;;;5068048;28;20474;-65
2024/03/11 09:56:57;;;;;;;1108.07;999.90;;;8.60;99.90;;;;;;5055933;28;20462;-65
2024/03/11 09:59:25;;;;;;;1136.77;999.90;;;9.10;99.90;;;;;;5072431;28;20494;-65
2024/03/11 10:01:55;;;;;;;1129.03;999.90;;;8.70;99.90;;;;;;5056587;28;20513;-64
2024/03/11 10:04:22;;;;;;;1148.03;999.90;;;8.70;99.90;;;;;;5072303;28;20558;-64
2024/03/11 10:06:58;;;;;;;1142.30;999.90;;;8.80;99.90;;;;;;5073121;28;20968;-64
2024/03/11 10:09:28;;;;;;;1116.93;999.90;;;9.20;99.90;;;;;;5072956;28;20880;-64
2024/03/11 10:12:03;;;;;;;1138.93;999.90;;;8.90;99.90;;;;;;5072557;28;20454;-65
2024/03/11 10:14:33;;;;;;;1133.70;999.90;;;9.30;99.90;;;;;;5057430;28;20474;-64
2024/03/11 10:17:19;;;;;;;1128.73;999.90;;;8.80;99.90;;;;;;5060414;28;20521;-65
2024/03/11 10:19:47;;;;;;;1131.37;999.90;;;8.80;99.90;;;;;;5053265;28;20956;-64
2024/03/11 10:22:22;;;;;;;1130.83;999.90;;;9.20;99.90;;;;;;5072421;28;20457;-65
2024/03/11 10:24:52;;;;;;;1121.47;999.90;;;9.10;99.90;;;;;;5072261;28;20458;-65
2024/03/11 10:27:19;;;;;;;1131.20;999.90;;;8.70;99.90;;;;;;5057571;28;20482;-64
2024/03/11 10:29:46;;;;;;;1128.43;999.90;;;9.10;99.90;;;;;;5069419;28;20490;-64
2024/03/11 10:32:33;;;;;;;1122.67;999.90;;;8.90;99.90;;;;;;5059467;28;20451;-65
2024/03/11 10:34:59;;;;;;;1130.40;999.90;;;9.10;99.90;;;;;;5071156;28;20974;-64
2024/03/11 10:37:27;;;;;;;1129.23;999.90;;;9.10;99.90;;;;;;5057005;28;20957;-65
2024/03/11 10:40:00;;;;;;;1124.97;999.90;;;8.90;99.90;;;;;;5051612;28;20453;-65
2024/03/11 10:42:28;;;;;;;1116.87;999.90;;;9.10;99.90;;;;;;5058174;28;20454;-65
2024/03/11 10:44:57;;;;;;;1121.77;999.90;;;8.80;99.90;;;;;;5053257;28;20458;-64
2024/03/11 10:47:28;;;;;;;1120.37;999.90;;;9.00;99.90;;;;;;5057370;28;20462;-64
2024/03/11 10:49:55;;;;;;;1129.17;999.90;;;8.50;99.90;;;;;;5071548;28;20491;-64
2024/03/11 10:52:25;;;;;;;1117.57;999.90;;;9.00;99.90;;;;;;5071437;28;20454;-65
2024/03/11 10:54:55;;;;;;;1128.97;999.90;;;9.00;99.90;;;;;;5053609;28;20459;-65
2024/03/11 10:57:31;;;;;;;1139.23;999.90;;;8.60;99.90;;;;;;5057323;28;20457;-63
2024/03/11 10:59:59;;;;;;;1149.93;999.90;;;8.60;99.90;;;;;;5060747;28;20806;-65
2024/03/11 11:02:32;;;;;;;1108.33;999.90;;;8.70;99.90;;;;;;5060157;28;20818;-65
2024/03/11 11:05:05;;;;;;;1096.10;999.90;;;9.00;99.90;;;;;;5062364;28;20959;-64
2024/03/11 11:07:33;;;;;;;1093.67;999.90;;;8.50;99.90;;;;;;5069745;28;20462;-64
2024/03/11 11:10:03;;;;;;;1107.77;999.90;;;8.80;99.90;;;;;;5070884;28;20489;-64
2024/03/11 11:12:30;;;;;;;1098.83;999.90;;;8.50;99.90;;;;;;5071339;28;20454;-65
2024/03/11 11:14:58;;;;;;;1117.63;999.90;;;8.80;99.90;;;;;;5060874;28;20447;-64
2024/03/11 11:17:28;;;;;;;1123.07;999.90;;;8.60;99.90;;;;;;5065402;28;20954;-65
2024/03/11 11:19:56;;;;;;;1110.97;999.90;;;8.80;99.90;;;;;;5071568;28;20462;-65
2024/03/11 11:22:25;;;;;;;1124.93;999.90;;;8.70;99.90;;;;;;5071267;28;20523;-65
2024/03/11 11:24:53;;;;;;;1113.67;999.90;;;8.80;99.90;;;;;;5071179;28;20950;-65
2024/03/11 11:27:28;;;;;;;1119.57;999.90;;;8.70;99.90;;;;;;5065449;28;20459;-65
2024/03/11 11:30:13;;;;;;;1113.80;999.90;;;8.40;99.90;;;;;;5060856;28;20837;-65
2024/03/11 11:32:42;;;;;;;1113.83;999.90;;;8.40;99.90;;;;;;5054921;28;20561;-65
2024/03/11 11:35:10;;;;;;;1108.60;999.90;;;8.50;99.90;;;;;;5052042;28;20451;-64
2024/03/11 11:37:39;;;;;;;1115.43;999.90;;;8.50;99.90;;;;;;5059080;28;20895;-65
2024/03/11 11:40:32;;;;;;;1118.90;999.90;;;8.60;99.90;;;;;;5051407;28;20447;-65
2024/03/11 11:43:00;;;;;;;1114.30;999.90;;;9.00;99.90;;;;;;5061729;28;20847;-65
2024/03/11 11:45:50;;;;;;;1091.17;999.90;;;9.00;99.90;;;;;;5064514;28;20458;-65
2024/03/11 11:48:21;;;;;;;1101.27;999.90;;;8.60;99.90;;;;;;5044563;28;20474;-64
2024/03/11 11:50:50;;;;;;;1094.53;999.90;;;8.70;99.90;;;;;;5068463;28;21015;-65
2024/03/11 11:53:29;;;;;;;1091.67;999.37;;;8.90;99.90;;;;;;5071195;28;20489;-64
2024/03/11 11:55:57;;;;;;;1099.30;999.90;;;9.00;99.90;;;;;;5060196;28;20458;-64
2024/03/11 11:58:27;;;;;;;1098.10;999.90;;;9.40;99.90;;;;;;5065407;28;20503;-65
2024/03/11 12:01:05;;;;;;;1087.77;995.50;;;9.40;99.90;;;;;;5052427;28;20645;-65
2024/03/11 12:03:34;;;;;;;1087.27;995.47;;;8.90;99.90;;;;;;5057932;28;20474;-64
2024/03/11 12:09:12;;;;;;;1083.67;992.57;;;9.20;99.90;;;;;;5056247;28;20728;-64
2024/03/11 12:11:41;;;;;;;1097.67;999.90;;;9.20;99.90;;;;;;5070976;28;20477;-64
2024/03/11 12:14:09;;;;;;;1105.10;999.90;;;9.10;99.90;;;;;;5070738;28;20478;-64
2024/03/11 12:16:36;;;;;;;1122.93;999.90;;;9.00;99.90;;;;;;5054905;28;20918;-65